Terminal Aerodrome Forecast
Issued by NWS

Current Version | Previous Version | Text Only | Print | Product List | Glossary On
Versions: 1 2 3 4 5 6 7 8 9 10 11 12 13 14 15
871
FTUS43 KIND 230523
TAFBMG
TAF
KBMG 230523Z 2306/2406 05008KT P6SM SCT250
     FM231500 05012KT P6SM SKC
     FM232300 03008KT P6SM FEW250
      AMD LTD TO CLD VIS AND WIND TIL 231300=

USA.gov is the U.S. government's official web portal to all federal, state and local government web resources and services.